PWSweather.com
Personal Weather Stations
Station Observations
BREAKEY01
Lévis, Breakeyville, QC G0S 1E1

LévisBreakeyville, QC G0S 1E1

Lat: 46.681, Lon: -71.224

Elevation: 328

Station Type: Davis Vantage Pro2

http://www.meteobreakey.webou.net/topic/index.php

Latest ConditionsUpdated 4:47:03 PM EST Tuesday, Nov 25, 2014
Currently Today's Max Today's Min Today's Average
Temperature 43.3°F6.3°C 55.2°F12.9°C 43.2°F6.2°C 45.8°F7.7°C
Dew Point 32.4°F0.2°C 44.4°F6.9°C 31.1°F-0.5°C 34.6°F1.4°C
Winds 8.9 mph WSW14.3 kmh WSW 23.9 mph SSW38.5 kmh SSW - 15.4 mph 24.8 kmh
Wind Gusts 8.1 mph13.0 kmh 38.9 mph62.6 kmh - -
Humidity 65% 71% 54% 65%
Pressure 29.79 in1008.8 mb 29.79 in1008.8 mb 29.36 in994.2 mb -
Hour Temp Dew Point Humidity Winds Wind Gusts Pressure Precip Precip Rate Daily Precip Total
04:47 PM 43.3°F6.3°C 32.4°F0.2°C 65% 8.9 mph WSW14.3 kmh WSW 8.1 mph13.0 kmh 29.79 in1008.8 mb 0.00 in0.0 mm 0.00 in/hr0.0 mm/hr 0.00 in0.0 mm
04:42 PM 43.3°F6.3°C 32.4°F0.2°C 65% 8.1 mph WSW13.0 kmh WSW 10.1 mph16.3 kmh 29.79 in1008.8 mb 0.00 in0.0 mm 0.00 in/hr0.0 mm/hr 0.00 in0.0 mm
04:37 PM 43.5°F6.4°C 32.5°F0.3°C 65% 8.9 mph WSW14.3 kmh WSW 8.9 mph14.3 kmh 29.79 in1008.8 mb 0.00 in0.0 mm 0.00 in/hr0.0 mm/hr 0.00 in0.0 mm
04:32 PM 43.5°F6.4°C 32.5°F0.3°C 65% 11.0 mph WSW17.7 kmh WSW 14.1 mph22.7 kmh 29.79 in1008.8 mb 0.00 in0.0 mm 0.00 in/hr0.0 mm/hr 0.00 in0.0 mm
04:27 PM 43.5°F6.4°C 32.5°F0.3°C 65% 11.0 mph SW17.7 kmh SW 13.0 mph20.9 kmh 29.79 in1008.8 mb 0.00 in0.0 mm 0.00 in/hr0.0 mm/hr 0.00 in0.0 mm
04:22 PM 43.5°F6.4°C 32.5°F0.3°C 65% 10.1 mph WSW16.3 kmh WSW 23.0 mph37.0 kmh 29.79 in1008.8 mb 0.00 in0.0 mm 0.00 in/hr0.0 mm/hr 0.00 in0.0 mm
04:17 PM 43.7°F6.5°C 32.4°F0.2°C 64% 12.1 mph WSW19.5 kmh WSW 8.1 mph13.0 kmh 29.79 in1008.8 mb 0.00 in0.0 mm 0.00 in/hr0.0 mm/hr 0.00 in0.0 mm
04:12 PM 43.7°F6.5°C 32.7°F0.4°C 65% 12.1 mph W19.5 kmh W 10.1 mph16.3 kmh 29.79 in1008.8 mb 0.00 in0.0 mm 0.00 in/hr0.0 mm/hr 0.00 in0.0 mm
04:07 PM 43.7°F6.5°C 32.4°F0.2°C 64% 12.1 mph SW19.5 kmh SW 10.1 mph16.3 kmh 29.79 in1008.8 mb 0.00 in0.0 mm 0.00 in/hr0.0 mm/hr 0.00 in0.0 mm
04:02 PM 43.9°F6.6°C 32.5°F0.3°C 64% 12.1 mph WSW19.5 kmh WSW 12.1 mph19.5 kmh 29.79 in1008.8 mb 0.00 in0.0 mm 0.00 in/hr0.0 mm/hr 0.00 in0.0 mm
03:57 PM 43.9°F6.6°C 32.5°F0.3°C 64% 13.0 mph WSW20.9 kmh WSW 17.0 mph27.4 kmh 29.79 in1008.8 mb 0.00 in0.0 mm 0.00 in/hr0.0 mm/hr 0.00 in0.0 mm
03:52 PM 43.9°F6.6°C 32.5°F0.3°C 64% 14.1 mph WSW22.7 kmh WSW 12.1 mph19.5 kmh 29.78 in1008.5 mb 0.00 in0.0 mm 0.00 in/hr0.0 mm/hr 0.00 in0.0 mm
03:47 PM 43.9°F6.6°C 32.2°F0.1°C 63% 12.1 mph WSW19.5 kmh WSW 19.0 mph30.6 kmh 29.78 in1008.5 mb 0.00 in0.0 mm 0.00 in/hr0.0 mm/hr 0.00 in0.0 mm
03:42 PM 43.9°F6.6°C 32.5°F0.3°C 64% 12.1 mph W19.5 kmh W 17.0 mph27.4 kmh 29.78 in1008.5 mb 0.00 in0.0 mm 0.00 in/hr0.0 mm/hr 0.00 in0.0 mm
03:37 PM 43.9°F6.6°C 32.2°F0.1°C 63% 13.0 mph WSW20.9 kmh WSW 11.0 mph17.7 kmh 29.78 in1008.5 mb 0.00 in0.0 mm 0.00 in/hr0.0 mm/hr 0.00 in0.0 mm
03:32 PM 44.1°F6.7°C 31.8°F-0.1°C 62% 12.1 mph W19.5 kmh W 14.1 mph22.7 kmh 29.78 in1008.5 mb 0.00 in0.0 mm 0.00 in/hr0.0 mm/hr 0.00 in0.0 mm
03:27 PM 44.1°F6.7°C 31.8°F-0.1°C 62% 13.0 mph W20.9 kmh W 12.1 mph19.5 kmh 29.78 in1008.5 mb 0.00 in0.0 mm 0.00 in/hr0.0 mm/hr 0.00 in0.0 mm
03:22 PM 44.2°F6.8°C 32.0°F0.0°C 62% 14.1 mph WSW22.7 kmh WSW 11.0 mph17.7 kmh 29.78 in1008.5 mb 0.00 in0.0 mm 0.00 in/hr0.0 mm/hr 0.00 in0.0 mm
03:17 PM 44.1°F6.7°C 31.8°F-0.1°C 62% 14.1 mph WSW22.7 kmh WSW 14.1 mph22.7 kmh 29.78 in1008.5 mb 0.00 in0.0 mm 0.00 in/hr0.0 mm/hr 0.00 in0.0 mm
03:12 PM 44.1°F6.7°C 32.4°F0.2°C 63% 13.0 mph W20.9 kmh W 10.1 mph16.3 kmh 29.78 in1008.5 mb 0.00 in0.0 mm 0.00 in/hr0.0 mm/hr 0.00 in0.0 mm
03:07 PM 44.1°F6.7°C 31.8°F-0.1°C 62% 13.0 mph WSW20.9 kmh WSW 14.1 mph22.7 kmh 29.77 in1008.1 mb 0.00 in0.0 mm 0.00 in/hr0.0 mm/hr 0.00 in0.0 mm
03:02 PM 44.1°F6.7°C 31.8°F-0.1°C 62% 12.1 mph WSW19.5 kmh WSW 14.1 mph22.7 kmh 29.76 in1007.8 mb 0.00 in0.0 mm 0.00 in/hr0.0 mm/hr 0.00 in0.0 mm
02:57 PM 43.9°F6.6°C 32.2°F0.1°C 63% 11.0 mph WSW17.7 kmh WSW 8.9 mph14.3 kmh 29.76 in1007.8 mb 0.00 in0.0 mm 0.00 in/hr0.0 mm/hr 0.00 in0.0 mm
02:52 PM 43.9°F6.6°C 32.5°F0.3°C 64% 11.0 mph WSW17.7 kmh WSW 8.1 mph13.0 kmh 29.75 in1007.5 mb 0.00 in0.0 mm 0.00 in/hr0.0 mm/hr 0.00 in0.0 mm
02:47 PM 43.9°F6.6°C 32.5°F0.3°C 64% 12.1 mph WSW19.5 kmh WSW 8.1 mph13.0 kmh 29.75 in1007.5 mb 0.00 in0.0 mm 0.00 in/hr0.0 mm/hr 0.00 in0.0 mm
02:42 PM 43.7°F6.5°C 32.4°F0.2°C 64% 12.1 mph WSW19.5 kmh WSW 10.1 mph16.3 kmh 29.76 in1007.8 mb 0.00 in0.0 mm 0.00 in/hr0.0 mm/hr 0.00 in0.0 mm
02:37 PM 43.9°F6.6°C 32.2°F0.1°C 63% 13.0 mph WSW20.9 kmh WSW 12.1 mph19.5 kmh 29.75 in1007.5 mb 0.00 in0.0 mm 0.00 in/hr0.0 mm/hr 0.00 in0.0 mm
02:32 PM 43.9°F6.6°C 32.2°F0.1°C 63% 14.1 mph W22.7 kmh W 13.0 mph20.9 kmh 29.75 in1007.5 mb 0.00 in0.0 mm 0.00 in/hr0.0 mm/hr 0.00 in0.0 mm
02:27 PM 43.9°F6.6°C 31.6°F-0.2°C 62% 14.1 mph WSW22.7 kmh WSW 8.9 mph14.3 kmh 29.74 in1007.1 mb 0.00 in0.0 mm 0.00 in/hr0.0 mm/hr 0.00 in0.0 mm
02:22 PM 43.9°F6.6°C 31.6°F-0.2°C 62% 12.1 mph WSW19.5 kmh WSW 17.0 mph27.4 kmh 29.74 in1007.1 mb 0.00 in0.0 mm 0.00 in/hr0.0 mm/hr 0.00 in0.0 mm
02:17 PM 43.9°F6.6°C 31.3°F-0.4°C 61% 12.1 mph SW19.5 kmh SW 12.1 mph19.5 kmh 29.74 in1007.1 mb 0.00 in0.0 mm 0.00 in/hr0.0 mm/hr 0.00 in0.0 mm
02:12 PM 43.9°F6.6°C 31.3°F-0.4°C 61% 15.0 mph SW24.1 kmh SW 6.9 mph11.1 kmh 29.74 in1007.1 mb 0.00 in0.0 mm 0.00 in/hr0.0 mm/hr 0.00 in0.0 mm
02:07 PM 43.9°F6.6°C 31.3°F-0.4°C 61% 16.1 mph WSW25.9 kmh WSW 15.0 mph24.1 kmh 29.74 in1007.1 mb 0.00 in0.0 mm 0.00 in/hr0.0 mm/hr 0.00 in0.0 mm
02:02 PM 43.7°F6.5°C 31.1°F-0.5°C 61% 14.1 mph W22.7 kmh W 23.9 mph38.5 kmh 29.74 in1007.1 mb 0.00 in0.0 mm 0.00 in/hr0.0 mm/hr 0.00 in0.0 mm
01:57 PM 43.7°F6.5°C 31.5°F-0.3°C 62% 15.0 mph WSW24.1 kmh WSW 8.9 mph14.3 kmh 29.74 in1007.1 mb 0.00 in0.0 mm 0.00 in/hr0.0 mm/hr 0.00 in0.0 mm
01:52 PM 43.7°F6.5°C 32.0°F0.0°C 63% 16.1 mph W25.9 kmh W 11.0 mph17.7 kmh 29.74 in1007.1 mb 0.00 in0.0 mm 0.00 in/hr0.0 mm/hr 0.00 in0.0 mm
01:47 PM 43.5°F6.4°C 31.3°F-0.4°C 62% 15.0 mph WSW24.1 kmh WSW 15.0 mph24.1 kmh 29.74 in1007.1 mb 0.00 in0.0 mm 0.00 in/hr0.0 mm/hr 0.00 in0.0 mm
01:42 PM 43.5°F6.4°C 31.8°F-0.1°C 63% 15.0 mph NW24.1 kmh NW 12.1 mph19.5 kmh 29.73 in1006.8 mb 0.00 in0.0 mm 0.00 in/hr0.0 mm/hr 0.00 in0.0 mm
01:37 PM 43.5°F6.4°C 31.8°F-0.1°C 63% 14.1 mph NW22.7 kmh NW 11.0 mph17.7 kmh 29.73 in1006.8 mb 0.00 in0.0 mm 0.00 in/hr0.0 mm/hr 0.00 in0.0 mm
01:32 PM 43.5°F6.4°C 32.2°F0.1°C 64% 13.0 mph WSW20.9 kmh WSW 8.1 mph13.0 kmh 29.73 in1006.8 mb 0.00 in0.0 mm 0.00 in/hr0.0 mm/hr 0.00 in0.0 mm
01:27 PM 43.5°F6.4°C 32.5°F0.3°C 65% 14.1 mph SW22.7 kmh SW 13.0 mph20.9 kmh 29.73 in1006.8 mb 0.00 in0.0 mm 0.00 in/hr0.0 mm/hr 0.00 in0.0 mm
01:22 PM 43.3°F6.3°C 32.4°F0.2°C 65% 13.0 mph WNW20.9 kmh WNW 14.1 mph22.7 kmh 29.73 in1006.8 mb 0.00 in0.0 mm 0.00 in/hr0.0 mm/hr 0.00 in0.0 mm
01:17 PM 43.3°F6.3°C 32.7°F0.4°C 66% 13.0 mph WSW20.9 kmh WSW 11.0 mph17.7 kmh 29.73 in1006.8 mb 0.00 in0.0 mm 0.00 in/hr0.0 mm/hr 0.00 in0.0 mm
01:12 PM 43.3°F6.3°C 32.7°F0.4°C 66% 16.1 mph WSW25.9 kmh WSW 13.0 mph20.9 kmh 29.73 in1006.8 mb 0.00 in0.0 mm 0.00 in/hr0.0 mm/hr 0.00 in0.0 mm
01:07 PM 43.3°F6.3°C 32.7°F0.4°C 66% 16.1 mph WSW25.9 kmh WSW 10.1 mph16.3 kmh 29.73 in1006.8 mb 0.00 in0.0 mm 0.00 in/hr0.0 mm/hr 0.00 in0.0 mm
01:02 PM 43.3°F6.3°C 33.1°F0.6°C 67% 14.1 mph WSW22.7 kmh WSW 17.9 mph28.8 kmh 29.73 in1006.8 mb 0.00 in0.0 mm 0.00 in/hr0.0 mm/hr 0.00 in0.0 mm
12:57 PM 43.3°F6.3°C 33.1°F0.6°C 67% 13.0 mph WSW20.9 kmh WSW 6.0 mph9.7 kmh 29.73 in1006.8 mb 0.00 in0.0 mm 0.00 in/hr0.0 mm/hr 0.00 in0.0 mm
12:52 PM 43.2°F6.2°C 32.9°F0.5°C 67% 13.0 mph WSW20.9 kmh WSW 17.9 mph28.8 kmh 29.73 in1006.8 mb 0.00 in0.0 mm 0.00 in/hr0.0 mm/hr 0.00 in0.0 mm
12:47 PM 43.2°F6.2°C 33.3°F0.7°C 68% 13.0 mph W20.9 kmh W 6.9 mph11.1 kmh 29.73 in1006.8 mb 0.00 in0.0 mm 0.00 in/hr0.0 mm/hr 0.00 in0.0 mm
12:42 PM 43.2°F6.2°C 33.3°F0.7°C 68% 13.0 mph W20.9 kmh W 11.0 mph17.7 kmh 29.73 in1006.8 mb 0.00 in0.0 mm 0.00 in/hr0.0 mm/hr 0.00 in0.0 mm
12:37 PM 43.2°F6.2°C 33.3°F0.7°C 68% 14.1 mph W22.7 kmh W 8.9 mph14.3 kmh 29.73 in1006.8 mb 0.00 in0.0 mm 0.00 in/hr0.0 mm/hr 0.00 in0.0 mm
12:32 PM 43.2°F6.2°C 33.3°F0.7°C 68% 12.1 mph W19.5 kmh W 23.0 mph37.0 kmh 29.73 in1006.8 mb 0.00 in0.0 mm 0.00 in/hr0.0 mm/hr 0.00 in0.0 mm
12:27 PM 43.2°F6.2°C 33.3°F0.7°C 68% 12.1 mph W19.5 kmh W 15.0 mph24.1 kmh 29.73 in1006.8 mb 0.00 in0.0 mm 0.00 in/hr0.0 mm/hr 0.00 in0.0 mm
12:22 PM 43.2°F6.2°C 32.9°F0.5°C 67% 13.0 mph WSW20.9 kmh WSW 12.1 mph19.5 kmh 29.73 in1006.8 mb 0.00 in0.0 mm 0.00 in/hr0.0 mm/hr 0.00 in0.0 mm
12:17 PM 43.2°F6.2°C 32.9°F0.5°C 67% 13.0 mph WSW20.9 kmh WSW 19.0 mph30.6 kmh 29.72 in1006.4 mb 0.00 in0.0 mm 0.00 in/hr0.0 mm/hr 0.00 in0.0 mm
12:12 PM 43.2°F6.2°C 32.9°F0.5°C 67% 14.1 mph WSW22.7 kmh WSW 17.0 mph27.4 kmh 29.72 in1006.4 mb 0.00 in0.0 mm 0.00 in/hr0.0 mm/hr 0.00 in0.0 mm
12:07 PM 43.2°F6.2°C 32.9°F0.5°C 67% 13.0 mph WSW20.9 kmh WSW 12.1 mph19.5 kmh 29.73 in1006.8 mb 0.00 in0.0 mm 0.00 in/hr0.0 mm/hr 0.00 in0.0 mm
12:02 PM 43.2°F6.2°C 32.9°F0.5°C 67% 13.0 mph WSW20.9 kmh WSW 6.9 mph11.1 kmh 29.72 in1006.4 mb 0.00 in0.0 mm 0.00 in/hr0.0 mm/hr 0.00 in0.0 mm
11:57 AM 43.2°F6.2°C 32.5°F0.3°C 66% 15.0 mph WSW24.1 kmh WSW 12.1 mph19.5 kmh 29.72 in1006.4 mb 0.00 in0.0 mm 0.00 in/hr0.0 mm/hr 0.00 in0.0 mm
11:52 AM 43.2°F6.2°C 32.5°F0.3°C 66% 16.1 mph SW25.9 kmh SW 15.0 mph24.1 kmh 29.72 in1006.4 mb 0.00 in0.0 mm 0.00 in/hr0.0 mm/hr 0.00 in0.0 mm
11:47 AM 43.2°F6.2°C 32.5°F0.3°C 66% 16.1 mph W25.9 kmh W 11.0 mph17.7 kmh 29.72 in1006.4 mb 0.00 in0.0 mm 0.00 in/hr0.0 mm/hr 0.00 in0.0 mm
11:42 AM 43.2°F6.2°C 32.5°F0.3°C 66% 14.1 mph W22.7 kmh W 17.9 mph28.8 kmh 29.71 in1006.1 mb 0.00 in0.0 mm 0.00 in/hr0.0 mm/hr 0.00 in0.0 mm
11:37 AM 43.2°F6.2°C 32.5°F0.3°C 66% 13.0 mph WSW20.9 kmh WSW 8.1 mph13.0 kmh 29.71 in1006.1 mb 0.00 in0.0 mm 0.00 in/hr0.0 mm/hr 0.00 in0.0 mm
11:32 AM 43.2°F6.2°C 32.5°F0.3°C 66% 15.0 mph SW24.1 kmh SW 8.9 mph14.3 kmh 29.71 in1006.1 mb 0.00 in0.0 mm 0.00 in/hr0.0 mm/hr 0.00 in0.0 mm
11:27 AM 43.3°F6.3°C 32.4°F0.2°C 65% 19.0 mph W30.6 kmh W 10.1 mph16.3 kmh 29.71 in1006.1 mb 0.00 in0.0 mm 0.00 in/hr0.0 mm/hr 0.00 in0.0 mm
11:22 AM 43.3°F6.3°C 32.4°F0.2°C 65% 17.9 mph SW28.8 kmh SW 17.9 mph28.8 kmh 29.71 in1006.1 mb 0.00 in0.0 mm 0.00 in/hr0.0 mm/hr 0.00 in0.0 mm
11:17 AM 43.3°F6.3°C 32.4°F0.2°C 65% 15.0 mph WNW24.1 kmh WNW 23.0 mph37.0 kmh 29.71 in1006.1 mb 0.00 in0.0 mm 0.00 in/hr0.0 mm/hr 0.00 in0.0 mm
11:12 AM 43.3°F6.3°C 32.4°F0.2°C 65% 16.1 mph W25.9 kmh W 16.1 mph25.9 kmh 29.71 in1006.1 mb 0.00 in0.0 mm 0.00 in/hr0.0 mm/hr 0.00 in0.0 mm
11:07 AM 43.3°F6.3°C 32.0°F0.0°C 64% 15.0 mph SW24.1 kmh SW 6.0 mph9.7 kmh 29.71 in1006.1 mb 0.00 in0.0 mm 0.00 in/hr0.0 mm/hr 0.00 in0.0 mm
11:02 AM 43.5°F6.4°C 31.8°F-0.1°C 63% 17.0 mph WSW27.4 kmh WSW 21.9 mph35.2 kmh 29.71 in1006.1 mb 0.00 in0.0 mm 0.00 in/hr0.0 mm/hr 0.00 in0.0 mm
10:57 AM 43.5°F6.4°C 31.8°F-0.1°C 63% 17.9 mph SW28.8 kmh SW 8.9 mph14.3 kmh 29.71 in1006.1 mb 0.00 in0.0 mm 0.00 in/hr0.0 mm/hr 0.00 in0.0 mm
10:52 AM 43.5°F6.4°C 31.8°F-0.1°C 63% 15.0 mph SW24.1 kmh SW 14.1 mph22.7 kmh 29.71 in1006.1 mb 0.00 in0.0 mm 0.00 in/hr0.0 mm/hr 0.00 in0.0 mm
10:47 AM 43.5°F6.4°C 32.2°F0.1°C 64% 15.0 mph SW24.1 kmh SW 12.1 mph19.5 kmh 29.71 in1006.1 mb 0.00 in0.0 mm 0.00 in/hr0.0 mm/hr 0.00 in0.0 mm
10:42 AM 43.7°F6.5°C 32.0°F0.0°C 63% 17.0 mph SW27.4 kmh SW 12.1 mph19.5 kmh 29.71 in1006.1 mb 0.00 in0.0 mm 0.00 in/hr0.0 mm/hr 0.00 in0.0 mm
10:37 AM 43.7°F6.5°C 31.5°F-0.3°C 62% 19.0 mph WNW30.6 kmh WNW 8.1 mph13.0 kmh 29.71 in1006.1 mb 0.00 in0.0 mm 0.00 in/hr0.0 mm/hr 0.00 in0.0 mm
10:32 AM 43.7°F6.5°C 32.0°F0.0°C 63% 17.0 mph W27.4 kmh W 12.1 mph19.5 kmh 29.71 in1006.1 mb 0.00 in0.0 mm 0.00 in/hr0.0 mm/hr 0.00 in0.0 mm
10:27 AM 43.5°F6.4°C 32.2°F0.1°C 64% 13.0 mph WSW20.9 kmh WSW 19.0 mph30.6 kmh 29.71 in1006.1 mb 0.00 in0.0 mm 0.00 in/hr0.0 mm/hr 0.00 in0.0 mm
10:22 AM 43.5°F6.4°C 32.5°F0.3°C 65% 12.1 mph WSW19.5 kmh WSW 15.0 mph24.1 kmh 29.71 in1006.1 mb 0.00 in0.0 mm 0.00 in/hr0.0 mm/hr 0.00 in0.0 mm
10:17 AM 43.5°F6.4°C 32.5°F0.3°C 65% 14.1 mph WSW22.7 kmh WSW 8.9 mph14.3 kmh 29.71 in1006.1 mb 0.00 in0.0 mm 0.00 in/hr0.0 mm/hr 0.00 in0.0 mm
10:12 AM 43.7°F6.5°C 32.4°F0.2°C 64% 15.0 mph W24.1 kmh W 13.0 mph20.9 kmh 29.70 in1005.8 mb 0.00 in0.0 mm 0.00 in/hr0.0 mm/hr 0.00 in0.0 mm
10:07 AM 43.5°F6.4°C 32.2°F0.1°C 64% 14.1 mph WSW22.7 kmh WSW 19.0 mph30.6 kmh 29.70 in1005.8 mb 0.00 in0.0 mm 0.00 in/hr0.0 mm/hr 0.00 in0.0 mm
10:02 AM 43.5°F6.4°C 32.5°F0.3°C 65% 13.0 mph WSW20.9 kmh WSW 11.0 mph17.7 kmh 29.70 in1005.8 mb 0.00 in0.0 mm 0.00 in/hr0.0 mm/hr 0.00 in0.0 mm
09:57 AM 43.5°F6.4°C 32.5°F0.3°C 65% 15.0 mph WSW24.1 kmh WSW 25.1 mph40.4 kmh 29.70 in1005.8 mb 0.00 in0.0 mm 0.00 in/hr0.0 mm/hr 0.00 in0.0 mm
09:52 AM 43.7°F6.5°C 32.7°F0.4°C 65% 16.1 mph WSW25.9 kmh WSW 13.0 mph20.9 kmh 29.70 in1005.8 mb 0.00 in0.0 mm 0.00 in/hr0.0 mm/hr 0.00 in0.0 mm
09:47 AM 43.7°F6.5°C 32.7°F0.4°C 65% 19.9 mph WSW32.0 kmh WSW 12.1 mph19.5 kmh 29.71 in1006.1 mb 0.00 in0.0 mm 0.00 in/hr0.0 mm/hr 0.00 in0.0 mm
09:42 AM 43.9°F6.6°C 32.5°F0.3°C 64% 21.0 mph WSW33.8 kmh WSW 23.0 mph37.0 kmh 29.70 in1005.8 mb 0.00 in0.0 mm 0.00 in/hr0.0 mm/hr 0.00 in0.0 mm
09:37 AM 43.9°F6.6°C 32.9°F0.5°C 65% 17.9 mph WSW28.8 kmh WSW 21.0 mph33.8 kmh 29.70 in1005.8 mb 0.00 in0.0 mm 0.00 in/hr0.0 mm/hr 0.00 in0.0 mm
09:32 AM 43.9°F6.6°C 33.3°F0.7°C 66% 17.0 mph WSW27.4 kmh WSW 21.0 mph33.8 kmh 29.70 in1005.8 mb 0.00 in0.0 mm 0.00 in/hr0.0 mm/hr 0.00 in0.0 mm
09:27 AM 43.9°F6.6°C 32.9°F0.5°C 65% 16.1 mph WSW25.9 kmh WSW 17.0 mph27.4 kmh 29.70 in1005.8 mb 0.00 in0.0 mm 0.00 in/hr0.0 mm/hr 0.00 in0.0 mm
09:22 AM 43.9°F6.6°C 32.9°F0.5°C 65% 14.1 mph WSW22.7 kmh WSW 19.0 mph30.6 kmh 29.70 in1005.8 mb 0.00 in0.0 mm 0.00 in/hr0.0 mm/hr 0.00 in0.0 mm
09:17 AM 43.9°F6.6°C 33.3°F0.7°C 66% 14.1 mph WSW22.7 kmh WSW 15.0 mph24.1 kmh 29.70 in1005.8 mb 0.00 in0.0 mm 0.00 in/hr0.0 mm/hr 0.00 in0.0 mm
09:12 AM 43.9°F6.6°C 32.9°F0.5°C 65% 13.0 mph SW20.9 kmh SW 13.0 mph20.9 kmh 29.70 in1005.8 mb 0.00 in0.0 mm 0.00 in/hr0.0 mm/hr 0.00 in0.0 mm
09:07 AM 44.1°F6.7°C 33.4°F0.8°C 66% 14.1 mph SW22.7 kmh SW 8.1 mph13.0 kmh 29.69 in1005.4 mb 0.00 in0.0 mm 0.00 in/hr0.0 mm/hr 0.00 in0.0 mm
09:02 AM 44.1°F6.7°C 33.1°F0.6°C 65% 16.1 mph SW25.9 kmh SW 11.0 mph17.7 kmh 29.69 in1005.4 mb 0.00 in0.0 mm 0.00 in/hr0.0 mm/hr 0.00 in0.0 mm
08:57 AM 44.1°F6.7°C 33.1°F0.6°C 65% 16.1 mph SW25.9 kmh SW 16.1 mph25.9 kmh 29.68 in1005.1 mb 0.00 in0.0 mm 0.00 in/hr0.0 mm/hr 0.00 in0.0 mm
08:52 AM 44.2°F6.8°C 33.3°F0.7°C 65% 15.0 mph WSW24.1 kmh WSW 17.9 mph28.8 kmh 29.68 in1005.1 mb 0.00 in0.0 mm 0.00 in/hr0.0 mm/hr 0.00 in0.0 mm
08:47 AM 44.2°F6.8°C 33.3°F0.7°C 65% 15.0 mph SW24.1 kmh SW 17.0 mph27.4 kmh 29.68 in1005.1 mb 0.00 in0.0 mm 0.00 in/hr0.0 mm/hr 0.00 in0.0 mm
08:42 AM 44.2°F6.8°C 33.3°F0.7°C 65% 16.1 mph SW25.9 kmh SW 16.1 mph25.9 kmh 29.68 in1005.1 mb 0.00 in0.0 mm 0.00 in/hr0.0 mm/hr 0.00 in0.0 mm
08:37 AM 44.2°F6.8°C 33.6°F0.9°C 66% 15.0 mph W24.1 kmh W 15.0 mph24.1 kmh 29.68 in1005.1 mb 0.00 in0.0 mm 0.00 in/hr0.0 mm/hr 0.00 in0.0 mm
08:32 AM 44.2°F6.8°C 34.0°F1.1°C 67% 12.1 mph WSW19.5 kmh WSW 12.1 mph19.5 kmh 29.67 in1004.7 mb 0.00 in0.0 mm 0.00 in/hr0.0 mm/hr 0.00 in0.0 mm
08:27 AM 44.2°F6.8°C 34.0°F1.1°C 67% 11.0 mph WSW17.7 kmh WSW 8.9 mph14.3 kmh 29.67 in1004.7 mb 0.00 in0.0 mm 0.00 in/hr0.0 mm/hr 0.00 in0.0 mm
08:22 AM 44.2°F6.8°C 34.7°F1.5°C 69% 8.9 mph WSW14.3 kmh WSW 11.0 mph17.7 kmh 29.66 in1004.4 mb 0.00 in0.0 mm 0.00 in/hr0.0 mm/hr 0.00 in0.0 mm
08:17 AM 44.2°F6.8°C 35.1°F1.7°C 70% 8.1 mph WSW13.0 kmh WSW 11.0 mph17.7 kmh 29.66 in1004.4 mb 0.00 in0.0 mm 0.00 in/hr0.0 mm/hr 0.00 in0.0 mm
08:12 AM 44.2°F6.8°C 35.1°F1.7°C 70% 8.9 mph SW14.3 kmh SW 6.0 mph9.7 kmh 29.66 in1004.4 mb 0.00 in0.0 mm 0.00 in/hr0.0 mm/hr 0.00 in0.0 mm
08:07 AM 44.2°F6.8°C 34.7°F1.5°C 69% 10.1 mph WSW16.3 kmh WSW 8.9 mph14.3 kmh 29.66 in1004.4 mb 0.00 in0.0 mm 0.00 in/hr0.0 mm/hr 0.00 in0.0 mm
08:02 AM 44.4°F6.9°C 34.9°F1.6°C 69% 10.1 mph WSW16.3 kmh WSW 10.1 mph16.3 kmh 29.66 in1004.4 mb 0.00 in0.0 mm 0.00 in/hr0.0 mm/hr 0.00 in0.0 mm
07:57 AM 44.4°F6.9°C 34.5°F1.4°C 68% 10.1 mph WNW16.3 kmh WNW 10.1 mph16.3 kmh 29.65 in1004.1 mb 0.00 in0.0 mm 0.00 in/hr0.0 mm/hr 0.00 in0.0 mm
07:52 AM 44.4°F6.9°C 34.5°F1.4°C 68% 10.1 mph WSW16.3 kmh WSW 6.9 mph11.1 kmh 29.65 in1004.1 mb 0.00 in0.0 mm 0.00 in/hr0.0 mm/hr 0.00 in0.0 mm
07:47 AM 44.6°F7.0°C 34.3°F1.3°C 67% 11.0 mph SW17.7 kmh SW 6.0 mph9.7 kmh 29.65 in1004.1 mb 0.00 in0.0 mm 0.00 in/hr0.0 mm/hr 0.00 in0.0 mm
07:42 AM 44.8°F7.1°C 34.5°F1.4°C 67% 13.0 mph W20.9 kmh W 10.1 mph16.3 kmh 29.65 in1004.1 mb 0.00 in0.0 mm 0.00 in/hr0.0 mm/hr 0.00 in0.0 mm
07:37 AM 44.8°F7.1°C 34.5°F1.4°C 67% 13.0 mph W20.9 kmh W 16.1 mph25.9 kmh 29.64 in1003.7 mb 0.00 in0.0 mm 0.00 in/hr0.0 mm/hr 0.00 in0.0 mm
07:32 AM 44.8°F7.1°C 34.2°F1.2°C 66% 16.1 mph WSW25.9 kmh WSW 12.1 mph19.5 kmh 29.64 in1003.7 mb 0.00 in0.0 mm 0.00 in/hr0.0 mm/hr 0.00 in0.0 mm
07:27 AM 44.8°F7.1°C 34.2°F1.2°C 66% 16.1 mph SSW25.9 kmh SSW 17.0 mph27.4 kmh 29.64 in1003.7 mb 0.00 in0.0 mm 0.00 in/hr0.0 mm/hr 0.00 in0.0 mm
07:22 AM 44.8°F7.1°C 34.5°F1.4°C 67% 15.0 mph WNW24.1 kmh WNW 12.1 mph19.5 kmh 29.63 in1003.4 mb 0.00 in0.0 mm 0.00 in/hr0.0 mm/hr 0.00 in0.0 mm
07:17 AM 44.8°F7.1°C 34.9°F1.6°C 68% 16.1 mph WSW25.9 kmh WSW 19.0 mph30.6 kmh 29.63 in1003.4 mb 0.00 in0.0 mm 0.00 in/hr0.0 mm/hr 0.00 in0.0 mm
07:12 AM 44.8°F7.1°C 34.9°F1.6°C 68% 16.1 mph WSW25.9 kmh WSW 15.0 mph24.1 kmh 29.63 in1003.4 mb 0.00 in0.0 mm 0.00 in/hr0.0 mm/hr 0.00 in0.0 mm
07:07 AM 44.4°F6.9°C 35.2°F1.8°C 70% 15.0 mph WSW24.1 kmh WSW 16.1 mph25.9 kmh 29.62 in1003.0 mb 0.00 in0.0 mm 0.00 in/hr0.0 mm/hr 0.00 in0.0 mm
07:02 AM 44.4°F6.9°C 35.2°F1.8°C 70% 13.0 mph WSW20.9 kmh WSW 16.1 mph25.9 kmh 29.63 in1003.4 mb 0.00 in0.0 mm 0.00 in/hr0.0 mm/hr 0.00 in0.0 mm
06:57 AM 44.4°F6.9°C 35.6°F2.0°C 71% 12.1 mph WSW19.5 kmh WSW 11.0 mph17.7 kmh 29.62 in1003.0 mb 0.00 in0.0 mm 0.00 in/hr0.0 mm/hr 0.00 in0.0 mm
06:52 AM 44.2°F6.8°C 35.4°F1.9°C 71% 12.1 mph WNW19.5 kmh WNW 10.1 mph16.3 kmh 29.62 in1003.0 mb 0.00 in0.0 mm 0.00 in/hr0.0 mm/hr 0.00 in0.0 mm
06:47 AM 44.2°F6.8°C 35.1°F1.7°C 70% 11.0 mph WSW17.7 kmh WSW 15.0 mph24.1 kmh 29.62 in1003.0 mb 0.00 in0.0 mm 0.00 in/hr0.0 mm/hr 0.00 in0.0 mm
06:42 AM 44.2°F6.8°C 35.1°F1.7°C 70% 12.1 mph WSW19.5 kmh WSW 8.1 mph13.0 kmh 29.62 in1003.0 mb 0.00 in0.0 mm 0.00 in/hr0.0 mm/hr 0.00 in0.0 mm
06:37 AM 44.2°F6.8°C 35.1°F1.7°C 70% 12.1 mph WSW19.5 kmh WSW 10.1 mph16.3 kmh 29.62 in1003.0 mb 0.00 in0.0 mm 0.00 in/hr0.0 mm/hr 0.00 in0.0 mm
06:32 AM 44.2°F6.8°C 35.1°F1.7°C 70% 12.1 mph WSW19.5 kmh WSW 17.0 mph27.4 kmh 29.62 in1003.0 mb 0.00 in0.0 mm 0.00 in/hr0.0 mm/hr 0.00 in0.0 mm
06:27 AM 44.2°F6.8°C 35.1°F1.7°C 70% 13.0 mph WSW20.9 kmh WSW 16.1 mph25.9 kmh 29.62 in1003.0 mb 0.00 in0.0 mm 0.00 in/hr0.0 mm/hr 0.00 in0.0 mm
06:22 AM 44.2°F6.8°C 35.1°F1.7°C 70% 13.0 mph WSW20.9 kmh WSW 17.0 mph27.4 kmh 29.62 in1003.0 mb 0.00 in0.0 mm 0.00 in/hr0.0 mm/hr 0.00 in0.0 mm
06:17 AM 44.2°F6.8°C 34.7°F1.5°C 69% 13.0 mph SSW20.9 kmh SSW 15.0 mph24.1 kmh 29.61 in1002.7 mb 0.00 in0.0 mm 0.00 in/hr0.0 mm/hr 0.00 in0.0 mm
06:12 AM 44.2°F6.8°C 34.7°F1.5°C 69% 13.0 mph W20.9 kmh W 15.0 mph24.1 kmh 29.61 in1002.7 mb 0.00 in0.0 mm 0.00 in/hr0.0 mm/hr 0.00 in0.0 mm
06:07 AM 44.2°F6.8°C 34.3°F1.3°C 68% 13.0 mph SW20.9 kmh SW 10.1 mph16.3 kmh 29.61 in1002.7 mb 0.00 in0.0 mm 0.00 in/hr0.0 mm/hr 0.00 in0.0 mm
06:02 AM 44.2°F6.8°C 34.3°F1.3°C 68% 12.1 mph WSW19.5 kmh WSW 17.0 mph27.4 kmh 29.61 in1002.7 mb 0.00 in0.0 mm 0.00 in/hr0.0 mm/hr 0.00 in0.0 mm
05:52 AM 44.2°F6.8°C 34.3°F1.3°C 68% 13.0 mph W20.9 kmh W 6.9 mph11.1 kmh 29.60 in1002.4 mb 0.00 in0.0 mm 0.00 in/hr0.0 mm/hr 0.00 in0.0 mm
05:47 AM 44.2°F6.8°C 34.0°F1.1°C 67% 14.1 mph SW22.7 kmh SW 11.0 mph17.7 kmh 29.60 in1002.4 mb 0.00 in0.0 mm 0.00 in/hr0.0 mm/hr 0.00 in0.0 mm
05:42 AM 44.4°F6.9°C 34.2°F1.2°C 67% 16.1 mph SW25.9 kmh SW 14.1 mph22.7 kmh 29.60 in1002.4 mb 0.00 in0.0 mm 0.00 in/hr0.0 mm/hr 0.00 in0.0 mm
05:37 AM 44.4°F6.9°C 34.2°F1.2°C 67% 17.0 mph WNW27.4 kmh WNW 10.1 mph16.3 kmh 29.60 in1002.4 mb 0.00 in0.0 mm 0.00 in/hr0.0 mm/hr 0.00 in0.0 mm
05:32 AM 44.4°F6.9°C 34.2°F1.2°C 67% 17.0 mph SW27.4 kmh SW 16.1 mph25.9 kmh 29.59 in1002.0 mb 0.00 in0.0 mm 0.00 in/hr0.0 mm/hr 0.00 in0.0 mm
05:27 AM 44.6°F7.0°C 34.3°F1.3°C 67% 17.0 mph WSW27.4 kmh WSW 19.0 mph30.6 kmh 29.59 in1002.0 mb 0.00 in0.0 mm 0.00 in/hr0.0 mm/hr 0.00 in0.0 mm
05:22 AM 44.6°F7.0°C 34.3°F1.3°C 67% 16.1 mph SW25.9 kmh SW 19.0 mph30.6 kmh 29.59 in1002.0 mb 0.00 in0.0 mm 0.00 in/hr0.0 mm/hr 0.00 in0.0 mm
05:17 AM 44.6°F7.0°C 34.7°F1.5°C 68% 17.0 mph SW27.4 kmh SW 17.9 mph28.8 kmh 29.59 in1002.0 mb 0.00 in0.0 mm 0.00 in/hr0.0 mm/hr 0.00 in0.0 mm
05:12 AM 44.8°F7.1°C 34.9°F1.6°C 68% 17.0 mph WSW27.4 kmh WSW 23.9 mph38.5 kmh 29.58 in1001.7 mb 0.00 in0.0 mm 0.00 in/hr0.0 mm/hr 0.00 in0.0 mm
05:07 AM 45.0°F7.2°C 35.1°F1.7°C 68% 15.0 mph W24.1 kmh W 11.0 mph17.7 kmh 29.57 in1001.4 mb 0.00 in0.0 mm 0.00 in/hr0.0 mm/hr 0.00 in0.0 mm
05:02 AM 44.8°F7.1°C 34.9°F1.6°C 68% 15.0 mph WSW24.1 kmh WSW 21.9 mph35.2 kmh 29.57 in1001.4 mb 0.00 in0.0 mm 0.00 in/hr0.0 mm/hr 0.00 in0.0 mm
04:57 AM 45.0°F7.2°C 35.1°F1.7°C 68% 17.9 mph SW28.8 kmh SW 11.0 mph17.7 kmh 29.57 in1001.4 mb 0.00 in0.0 mm 0.00 in/hr0.0 mm/hr 0.00 in0.0 mm
04:52 AM 45.1°F7.3°C 35.2°F1.8°C 68% 17.0 mph WSW27.4 kmh WSW 23.9 mph38.5 kmh 29.56 in1001.0 mb 0.00 in0.0 mm 0.00 in/hr0.0 mm/hr 0.00 in0.0 mm
04:47 AM 45.1°F7.3°C 35.6°F2.0°C 69% 16.1 mph W25.9 kmh W 21.0 mph33.8 kmh 29.57 in1001.4 mb 0.00 in0.0 mm 0.00 in/hr0.0 mm/hr 0.00 in0.0 mm
04:42 AM 45.3°F7.4°C 35.4°F1.9°C 68% 17.9 mph WSW28.8 kmh WSW 13.0 mph20.9 kmh 29.56 in1001.0 mb 0.00 in0.0 mm 0.00 in/hr0.0 mm/hr 0.00 in0.0 mm
04:37 AM 45.5°F7.5°C 35.6°F2.0°C 68% 17.9 mph SW28.8 kmh SW 13.0 mph20.9 kmh 29.56 in1001.0 mb 0.00 in0.0 mm 0.00 in/hr0.0 mm/hr 0.00 in0.0 mm
04:32 AM 45.7°F7.6°C 35.8°F2.1°C 68% 17.9 mph SW28.8 kmh SW 16.1 mph25.9 kmh 29.56 in1001.0 mb 0.00 in0.0 mm 0.00 in/hr0.0 mm/hr 0.00 in0.0 mm
04:27 AM 45.7°F7.6°C 35.8°F2.1°C 68% 17.9 mph WSW28.8 kmh WSW 19.0 mph30.6 kmh 29.56 in1001.0 mb 0.00 in0.0 mm 0.00 in/hr0.0 mm/hr 0.00 in0.0 mm
04:22 AM 45.7°F7.6°C 35.8°F2.1°C 68% 17.0 mph WSW27.4 kmh WSW 23.0 mph37.0 kmh 29.56 in1001.0 mb 0.00 in0.0 mm 0.00 in/hr0.0 mm/hr 0.00 in0.0 mm
04:17 AM 45.9°F7.7°C 36.0°F2.2°C 68% 16.1 mph WSW25.9 kmh WSW 12.1 mph19.5 kmh 29.55 in1000.7 mb 0.00 in0.0 mm 0.00 in/hr0.0 mm/hr 0.00 in0.0 mm
04:12 AM 46.0°F7.8°C 36.1°F2.3°C 68% 15.0 mph WSW24.1 kmh WSW 13.0 mph20.9 kmh 29.55 in1000.7 mb 0.00 in0.0 mm 0.00 in/hr0.0 mm/hr 0.00 in0.0 mm
04:07 AM 46.2°F7.9°C 36.3°F2.4°C 68% 15.0 mph WSW24.1 kmh WSW 6.9 mph11.1 kmh 29.55 in1000.7 mb 0.00 in0.0 mm 0.00 in/hr0.0 mm/hr 0.00 in0.0 mm
04:02 AM 46.4°F8.0°C 36.0°F2.2°C 67% 17.0 mph W27.4 kmh W 12.1 mph19.5 kmh 29.54 in1000.3 mb 0.00 in0.0 mm 0.00 in/hr0.0 mm/hr 0.00 in0.0 mm
03:57 AM 46.6°F8.1°C 36.1°F2.3°C 67% 17.9 mph SW28.8 kmh SW 13.0 mph20.9 kmh 29.53 in1000.0 mb 0.00 in0.0 mm 0.00 in/hr0.0 mm/hr 0.00 in0.0 mm
03:52 AM 46.9°F8.3°C 36.5°F2.5°C 67% 17.9 mph SW28.8 kmh SW 23.0 mph37.0 kmh 29.53 in1000.0 mb 0.00 in0.0 mm 0.00 in/hr0.0 mm/hr 0.00 in0.0 mm
03:47 AM 46.9°F8.3°C 36.1°F2.3°C 66% 17.0 mph W27.4 kmh W 16.1 mph25.9 kmh 29.52 in999.7 mb 0.00 in0.0 mm 0.00 in/hr0.0 mm/hr 0.00 in0.0 mm
03:42 AM 47.5°F8.6°C 36.7°F2.6°C 66% 15.0 mph SW24.1 kmh SW 16.1 mph25.9 kmh 29.52 in999.7 mb 0.00 in0.0 mm 0.00 in/hr0.0 mm/hr 0.00 in0.0 mm
03:37 AM 47.5°F8.6°C 36.3°F2.4°C 65% 17.0 mph WSW27.4 kmh WSW 15.0 mph24.1 kmh 29.51 in999.3 mb 0.00 in0.0 mm 0.00 in/hr0.0 mm/hr 0.00 in0.0 mm
03:32 AM 47.8°F8.8°C 36.7°F2.6°C 65% 19.0 mph WSW30.6 kmh WSW 13.0 mph20.9 kmh 29.51 in999.3 mb 0.00 in0.0 mm 0.00 in/hr0.0 mm/hr 0.00 in0.0 mm
03:27 AM 48.0°F8.9°C 36.9°F2.7°C 65% 19.9 mph SW32.0 kmh SW 19.9 mph32.0 kmh 29.50 in999.0 mb 0.00 in0.0 mm 0.00 in/hr0.0 mm/hr 0.00 in0.0 mm
03:22 AM 48.4°F9.1°C 36.7°F2.6°C 64% 19.9 mph WSW32.0 kmh WSW 23.9 mph38.5 kmh 29.50 in999.0 mb 0.00 in0.0 mm 0.00 in/hr0.0 mm/hr 0.00 in0.0 mm
03:17 AM 48.6°F9.2°C 36.9°F2.7°C 64% 19.0 mph SW30.6 kmh SW 13.0 mph20.9 kmh 29.50 in999.0 mb 0.00 in0.0 mm 0.00 in/hr0.0 mm/hr 0.00 in0.0 mm
03:12 AM 48.9°F9.4°C 36.9°F2.7°C 63% 21.9 mph SW35.2 kmh SW 19.0 mph30.6 kmh 29.49 in998.6 mb 0.00 in0.0 mm 0.00 in/hr0.0 mm/hr 0.00 in0.0 mm
03:07 AM 49.3°F9.6°C 36.9°F2.7°C 62% 21.9 mph SW35.2 kmh SW 25.9 mph41.7 kmh 29.49 in998.6 mb 0.00 in0.0 mm 0.00 in/hr0.0 mm/hr 0.00 in0.0 mm
03:02 AM 49.3°F9.6°C 36.9°F2.7°C 62% 19.0 mph W30.6 kmh W 23.9 mph38.5 kmh 29.49 in998.6 mb 0.00 in0.0 mm 0.00 in/hr0.0 mm/hr 0.00 in0.0 mm
02:57 AM 49.6°F9.8°C 37.2°F2.9°C 62% 21.0 mph SW33.8 kmh SW 17.0 mph27.4 kmh 29.49 in998.6 mb 0.00 in0.0 mm 0.00 in/hr0.0 mm/hr 0.00 in0.0 mm
02:52 AM 49.8°F9.9°C 36.9°F2.7°C 61% 23.9 mph WNW38.5 kmh WNW 29.1 mph46.8 kmh 29.48 in998.3 mb 0.00 in0.0 mm 0.00 in/hr0.0 mm/hr 0.00 in0.0 mm
02:47 AM 50.4°F10.2°C 37.4°F3.0°C 61% 23.0 mph WSW37.0 kmh WSW 31.1 mph50.1 kmh 29.48 in998.3 mb 0.00 in0.0 mm 0.00 in/hr0.0 mm/hr 0.00 in0.0 mm
02:42 AM 50.4°F10.2°C 37.4°F3.0°C 61% 19.9 mph SW32.0 kmh SW 23.9 mph38.5 kmh 29.48 in998.3 mb 0.00 in0.0 mm 0.00 in/hr0.0 mm/hr 0.00 in0.0 mm
02:37 AM 50.5°F10.3°C 37.6°F3.1°C 61% 17.9 mph SW28.8 kmh SW 29.1 mph46.8 kmh 29.48 in998.3 mb 0.00 in0.0 mm 0.00 in/hr0.0 mm/hr 0.00 in0.0 mm
02:32 AM 50.9°F10.5°C 37.9°F3.3°C 61% 19.0 mph WSW30.6 kmh WSW 19.9 mph32.0 kmh 29.47 in998.0 mb 0.00 in0.0 mm 0.00 in/hr0.0 mm/hr 0.00 in0.0 mm
02:27 AM 51.1°F10.6°C 37.8°F3.2°C 60% 17.0 mph WSW27.4 kmh WSW 19.0 mph30.6 kmh 29.46 in997.6 mb 0.00 in0.0 mm 0.00 in/hr0.0 mm/hr 0.00 in0.0 mm
02:22 AM 51.3°F10.7°C 37.8°F3.2°C 60% 16.1 mph WSW25.9 kmh WSW 16.1 mph25.9 kmh 29.45 in997.3 mb 0.00 in0.0 mm 0.00 in/hr0.0 mm/hr 0.00 in0.0 mm
02:17 AM 51.4°F10.8°C 37.9°F3.3°C 60% 17.9 mph WSW28.8 kmh WSW 23.0 mph37.0 kmh 29.45 in997.3 mb 0.00 in0.0 mm 0.00 in/hr0.0 mm/hr 0.00 in0.0 mm
02:12 AM 51.6°F10.9°C 37.8°F3.2°C 59% 19.0 mph SW30.6 kmh SW 16.1 mph25.9 kmh 29.44 in997.0 mb 0.00 in0.0 mm 0.00 in/hr0.0 mm/hr 0.00 in0.0 mm
02:07 AM 52.0°F11.1°C 38.1°F3.4°C 59% 19.0 mph SW30.6 kmh SW 23.0 mph37.0 kmh 29.44 in997.0 mb 0.00 in0.0 mm 0.00 in/hr0.0 mm/hr 0.00 in0.0 mm
02:02 AM 52.0°F11.1°C 38.1°F3.4°C 59% 17.9 mph W28.8 kmh W 30.0 mph48.3 kmh 29.44 in997.0 mb 0.00 in0.0 mm 0.00 in/hr0.0 mm/hr 0.00 in0.0 mm
01:57 AM 52.2°F11.2°C 38.3°F3.5°C 59% 17.9 mph W28.8 kmh W 19.0 mph30.6 kmh 29.44 in997.0 mb 0.00 in0.0 mm 0.00 in/hr0.0 mm/hr 0.00 in0.0 mm
01:52 AM 52.3°F11.3°C 37.9°F3.3°C 58% 19.0 mph WSW30.6 kmh WSW 21.9 mph35.2 kmh 29.44 in997.0 mb 0.00 in0.0 mm 0.00 in/hr0.0 mm/hr 0.00 in0.0 mm
01:47 AM 52.3°F11.3°C 37.9°F3.3°C 58% 17.9 mph WSW28.8 kmh WSW 16.1 mph25.9 kmh 29.43 in996.6 mb 0.00 in0.0 mm 0.00 in/hr0.0 mm/hr 0.00 in0.0 mm
01:42 AM 52.5°F11.4°C 38.1°F3.4°C 58% 17.0 mph SW27.4 kmh SW 13.0 mph20.9 kmh 29.43 in996.6 mb 0.00 in0.0 mm 0.00 in/hr0.0 mm/hr 0.00 in0.0 mm
01:37 AM 52.9°F11.6°C 37.6°F3.1°C 56% 19.9 mph WSW32.0 kmh WSW 15.0 mph24.1 kmh 29.43 in996.6 mb 0.00 in0.0 mm 0.00 in/hr0.0 mm/hr 0.00 in0.0 mm
01:32 AM 53.2°F11.8°C 37.4°F3.0°C 55% 23.9 mph SSW38.5 kmh SSW 17.9 mph28.8 kmh 29.42 in996.3 mb 0.00 in0.0 mm 0.00 in/hr0.0 mm/hr 0.00 in0.0 mm
01:27 AM 53.2°F11.8°C 37.0°F2.8°C 54% 21.9 mph WSW35.2 kmh WSW 28.0 mph45.1 kmh 29.42 in996.3 mb 0.00 in0.0 mm 0.00 in/hr0.0 mm/hr 0.00 in0.0 mm
01:22 AM 53.2°F11.8°C 37.4°F3.0°C 55% 19.0 mph SW30.6 kmh SW 12.1 mph19.5 kmh 29.42 in996.3 mb 0.00 in0.0 mm 0.00 in/hr0.0 mm/hr 0.00 in0.0 mm
01:17 AM 53.4°F11.9°C 37.6°F3.1°C 55% 19.0 mph WSW30.6 kmh WSW 13.0 mph20.9 kmh 29.42 in996.3 mb 0.00 in0.0 mm 0.00 in/hr0.0 mm/hr 0.00 in0.0 mm
01:12 AM 53.6°F12.0°C 38.3°F3.5°C 56% 21.0 mph WSW33.8 kmh WSW 8.9 mph14.3 kmh 29.42 in996.3 mb 0.00 in0.0 mm 0.00 in/hr0.0 mm/hr 0.00 in0.0 mm
01:07 AM 53.8°F12.1°C 38.5°F3.6°C 56% 21.9 mph WSW35.2 kmh WSW 14.1 mph22.7 kmh 29.41 in995.9 mb 0.00 in0.0 mm 0.00 in/hr0.0 mm/hr 0.00 in0.0 mm
01:02 AM 53.8°F12.1°C 39.4°F4.1°C 58% 19.9 mph WSW32.0 kmh WSW 17.0 mph27.4 kmh 29.41 in995.9 mb 0.00 in0.0 mm 0.00 in/hr0.0 mm/hr 0.00 in0.0 mm
12:57 AM 53.8°F12.1°C 40.3°F4.6°C 60% 19.0 mph WSW30.6 kmh WSW 38.9 mph62.6 kmh 29.41 in995.9 mb 0.00 in0.0 mm 0.00 in/hr0.0 mm/hr 0.00 in0.0 mm
12:52 AM 54.0°F12.2°C 41.7°F5.4°C 63% 17.9 mph WSW28.8 kmh WSW 34.9 mph56.2 kmh 29.39 in995.3 mb 0.00 in0.0 mm 0.00 in/hr0.0 mm/hr 0.00 in0.0 mm
12:47 AM 54.1°F12.3°C 42.3°F5.7°C 64% 17.0 mph WSW27.4 kmh WSW 27.1 mph43.6 kmh 29.39 in995.3 mb 0.00 in0.0 mm 0.00 in/hr0.0 mm/hr 0.00 in0.0 mm
12:42 AM 54.3°F12.4°C 42.1°F5.6°C 63% 17.9 mph SSW28.8 kmh SSW 13.0 mph20.9 kmh 29.39 in995.3 mb 0.00 in0.0 mm 0.00 in/hr0.0 mm/hr 0.00 in0.0 mm
12:37 AM 54.7°F12.6°C 41.9°F5.5°C 62% 17.9 mph WSW28.8 kmh WSW 17.9 mph28.8 kmh 29.38 in994.9 mb 0.00 in0.0 mm 0.00 in/hr0.0 mm/hr 0.00 in0.0 mm
12:32 AM 54.9°F12.7°C 41.2°F5.1°C 60% 19.9 mph WSW32.0 kmh WSW 16.1 mph25.9 kmh 29.38 in994.9 mb 0.00 in0.0 mm 0.00 in/hr0.0 mm/hr 0.00 in0.0 mm
12:27 AM 54.9°F12.7°C 40.3°F4.6°C 58% 21.0 mph W33.8 kmh W 25.1 mph40.4 kmh 29.38 in994.9 mb 0.00 in0.0 mm 0.00 in/hr0.0 mm/hr 0.00 in0.0 mm
12:22 AM 54.9°F12.7°C 41.2°F5.1°C 60% 21.0 mph WSW33.8 kmh WSW 25.9 mph41.7 kmh 29.38 in994.9 mb 0.00 in0.0 mm 0.00 in/hr0.0 mm/hr 0.00 in0.0 mm
12:17 AM 55.0°F12.8°C 41.4°F5.2°C 60% 23.9 mph WSW38.5 kmh WSW 28.0 mph45.1 kmh 29.37 in994.6 mb 0.00 in0.0 mm 0.00 in/hr0.0 mm/hr 0.00 in0.0 mm
12:12 AM 55.2°F12.9°C 42.8°F6.0°C 63% 21.9 mph WSW35.2 kmh WSW 34.0 mph54.7 kmh 29.37 in994.6 mb 0.00 in0.0 mm 0.00 in/hr0.0 mm/hr 0.00 in0.0 mm
12:07 AM 55.2°F12.9°C 43.7°F6.5°C 65% 21.0 mph WSW33.8 kmh WSW 29.1 mph46.8 kmh 29.37 in994.6 mb 0.00 in0.0 mm 0.00 in/hr0.0 mm/hr 0.00 in0.0 mm
12:02 AM 55.2°F12.9°C 44.4°F6.9°C 67% 19.9 mph WSW32.0 kmh WSW 23.0 mph37.0 kmh 29.36 in994.2 mb 0.00 in0.0 mm 0.00 in/hr0.0 mm/hr 0.51 in13.0 mm